Weather observations for the past three days for
Anvik, Anvik Airport
Imperial (Metric)
Date Time (akdt) Wind (mph) Vis. (mi.) Weather Sky Cond. Temperature (ºF) Relative Humidity Wind Chill (°F) Heat Index (°F) Pressure Precipitation (in)
Air Dwpt 6 hour altimeter (in) sea level (mb) 1 hr 3 hr 6 hr
Max. Min.
07 08:56 N 3 10.00 Fair CLR 28.9 19.9 69% 30.07 1028.4
07 07:56 N 3 10.00 Overcast OVC042 26.1 19.9 78% 30.07 1028.6
07 06:56 NW 3 10.00 Overcast OVC042 24.1 19 81% 30.07 1028.7
07 05:56 NW 3 10.00 Overcast OVC038 24.1 19 81% 30.07 1028.8
07 04:56 NW 5 10.00 Overcast OVC036 23 19 85% 18 30.06 1028.7
07 03:56 NW 3 10.00 Partly Cloudy SCT036 23 19 35.1 23 85% 30.06 1028.7
07 02:56 NW 5 10.00 Fair CLR 25 19 78% 20 30.06 1028.7
07 01:56 NW 5 10.00 Fair CLR 26.1 19.9 78% 21 30.06 1028.5
07 00:56 NW 3 10.00 Fair CLR 27 19.9 75% 30.05 1028.1
06 23:56 Vrbl 5 10.00 Fair CLR 28 19.9 72% 24 30.04 1027.8
06 22:56 N 6 10.00 Fair CLR 30.9 19.9 64% 26 30.03 1027.5
06 21:56 W 9 10.00 Fair CLR 35.1 19 37.9 35.1 52% 29 30.01 1026.4
06 20:56 W 9 10.00 Fair CLR 37 19.9 50% 31 30.01 1026.4
06 19:56 W 7 10.00 Fair CLR 37 18 46% 32 30.01 1026.6
06 18:56 Vrbl 6 10.00 Fair CLR 37 18 46% 33 30.01 1026.8
06 17:56 Vrbl 7 10.00 Fair CLR 36 19 50% 31 30.01 1026.9
06 16:56 SW 9 10.00 A Few Clouds FEW038 36 19.9 52% 30 30.02 1027.1
06 15:56 SW 6 10.00 Fair CLR 36 19 36 28.9 50% 32 30.02 1027.2
06 14:56 SW 8 10.00 Fair CLR 34 19 54% 28 30.02 1027.3
06 13:56 Vrbl 3 10.00 A Few Clouds FEW030 34 19.9 56% 30.03 1027.4
06 12:56 W 8 10.00 A Few Clouds FEW026 34 19.9 56% 28 30.03 1027.3
06 11:56 W 9 10.00 Mostly Cloudy BKN022 33.1 21 61% 26 30.02 1027.0
06 10:56 W 6 10.00 Mostly Cloudy BKN018 28.9 19.9 69% 23 30.03 1027.3
06 09:56 W 6 10.00 Mostly Cloudy BKN020 30 21.9 30 19.9 72% 25 30.03 1026.9
06 08:56 W 7 10.00 Fair CLR 27 21.9 81% 20 30.02 1026.7
06 07:56 SW 3 10.00 Fair CLR 24.1 19.9 84% 30.01 1026.5
06 06:56 W 3 10.00 Fair CLR 21 19 92% 30 1026.2
06 05:56 W 5 10.00 Fair CLR 21 18 88% 15 29.99 1025.8
06 04:56 W 5 10.00 Fair CLR 21.9 19 89% 16 29.98 1025.4
06 03:56 W 5 10.00 Fair CLR 21.9 19 35.1 21.9 89% 16 29.97 1025.3
06 02:56 W 3 10.00 Fair CLR 24.1 19 81% 29.96 1024.7
06 01:56 N 5 10.00 Fair CLR 25 19.9 81% 20 29.95 1024.2
06 00:56 NW 5 10.00 Fair CLR 27 21 78% 22 29.93 1023.6
05 23:56 NW 6 10.00 Fair CLR 28 21 75% 22 29.91 1023.0
05 22:56 Vrbl 5 10.00 Fair CLR 32 21.9 66% 28 29.9 1022.3
05 21:56 N 8 10.00 Fair CLR 35.1 19 39 35.1 52% 29 29.89 1021.4
05 20:56 NW 9 10.00 Fair CLR 37 19.9 50% 31 29.87 1020.8
05 19:56 NW 8 10.00 Fair CLR 37.9 18 44% 33 29.86 1020.7
05 18:56 NW 9 10.00 Fair CLR 37.9 18 44% 32 29.85 1020.2
05 17:56 NW 10 G 17 10.00 Fair CLR 39 18 43% 33 29.83 1019.4
05 16:56 NW 15 G 21 10.00 Fair CLR 37.9 17.1 43% 30 29.83 1019.2
05 15:56 NW 13 G 17 10.00 Fair CLR 37.9 18 37.9 32 44% 31 29.82 1018.9
05 14:56 NW 14 G 20 10.00 Fair CLR 37 18 46% 29 29.81 1018.4
05 13:56 W 13 G 17 10.00 Fair CLR 36 17.1 46% 28 29.81 1018.2
05 12:56 NW 13 G 23 10.00 Fair CLR 35.1 18 50% 27 29.8 1018.0
05 11:56 NW 14 G 21 10.00 Fair CLR 34 18 52% 25 29.79 1017.6
05 10:56 NW 13 G 20 10.00 Fair CLR 33.1 17.1 52% 25 29.77 1017.0
05 09:56 NW 13 10.00 Fair CLR 32 19.9 32 27 61% 23 29.77 1016.6
05 08:56 W 12 10.00 Fair CLR 30.9 21.9 69% 22 29.75 1016.0
05 07:56 W 7 10.00 Fair CLR 28 23 81% 22 29.74 1015.7
05 06:56 NW 8 10.00 Fair CLR 28 23 81% 21 29.73 1015.1
05 05:56 NW 7 10.00 Overcast OVC085 28.9 24.1 82% 23 29.72 1014.8
05 04:56 W 7 10.00 Mostly Cloudy FEW050 BKN085 30 25 82% 24 29.71 1014.1
05 03:56 W 5 10.00 Mostly Cloudy BKN080 30 26.1 39 30 85% 26 29.7 1014.1
05 02:56 W 3 10.00 Fair CLR 32 26.1 79% 29.7 1013.9
05 01:56 Vrbl 7 10.00 A Few Clouds FEW075 35.1 26.1 70% 30 29.7 1013.8
05 00:56 Vrbl 6 10.00 Mostly Cloudy FEW060 BKN075 35.1 26.1 70% 31 29.7 1014.0
04 23:56 NW 6 10.00 Overcast BKN060 OVC080 36 27 70% 32 29.71 1014.3
04 22:56 NW 6 10.00 Overcast OVC070 37 27 67% 33 29.71 1014.7
04 21:56 NW 9 10.00 A Few Clouds FEW070 39 27 44.1 39 62% 33 29.71 1014.6
04 20:56 N 9 10.00 Fair CLR 41 27 57% 36 29.72 1015.0
04 19:56 N 8 10.00 A Few Clouds FEW044 43 28 56% 39 29.74 1015.6
04 18:56 NW 9 10.00 Fair CLR 44.1 28 53% 40 29.75 1016.2
04 17:56 N 9 G 17 10.00 Fair CLR 43 27 53% 38 29.77 1016.9
04 16:56 NE 8 10.00 Fair CLR 43 26.1 51% 39 29.79 1017.5
04 15:56 NE 9 G 16 10.00 Fair CLR 42.1 26.1 42.1 32 53% 37 29.82 1018.5
04 14:56 NE 9 10.00 Fair CLR 41 25 53% 36 29.85 1019.8
04 13:56 NE 14 10.00 Fair CLR 39.9 25 55% 33 29.88 1020.8
04 12:56 N 8 10.00 Fair CLR 39 26.1 60% 34 29.91 1021.6
04 11:56 N 6 10.00 Fair CLR 37 24.1 59% 33 29.94 1022.8
04 10:56 NE 6 10.00 Fair CLR 35.1 24.1 64% 31 29.95 1023.5
04 09:56 N 8 10.00 Fair CLR 32 23 35.1 23 69% 25 29.98 1024.6
Date Time (akdt) Wind (mph) Vis. (mi.) Weather Sky Cond. Air Dwpt Max. Min. Relative Humidity Wind Chill (°F) Heat Index (°F) altimeter (in) sea level (mb) 1 hr 3 hr 6 hr
6 hour
Temperature (ºF) Pressure Precipitation (in)